Time;durP1;ratioP1;P1;durP2;ratioP2;P2;SDS_P1;SDS_P2;PMS_P1;PMS_P2;Temp;Humidity;BMP_temperature;BMP_pressure;BME280_temperature;BME280_humidity;BME280_pressure;Samples;Min_cycle;Max_cycle;Signal;HPM_P1;HPM_P2
2022/04/03 00:01:47;;;;;;;2.72;1.50;;;;;;;;;;5037064;28;20072;-66
2022/04/03 00:04:14;;;;;;;3.53;1.95;;;;;;;;;;5028843;28;20121;-67
2022/04/03 00:06:40;;;;;;;3.53;1.60;;;;;;;;;;5028057;28;20052;-65
2022/04/03 00:09:06;;;;;;;4.50;1.95;;;;;;;;;;5020851;28;20046;-65
2022/04/03 00:11:33;;;;;;;4.78;2.38;;;;;;;;;;5030770;28;20522;-66
2022/04/03 00:13:59;;;;;;;2.40;1.42;;;;;;;;;;5023217;28;20049;-66
2022/04/03 00:16:26;;;;;;;2.63;1.48;;;;;;;;;;5034385;28;20079;-66
2022/04/03 00:18:52;;;;;;;3.40;1.85;;;;;;;;;;5036670;28;20578;-66
2022/04/03 00:21:19;;;;;;;4.95;1.85;;;;;;;;;;5013887;28;20124;-66
2022/04/03 00:23:46;;;;;;;4.97;1.95;;;;;;;;;;5040261;28;20475;-66
2022/04/03 00:26:13;;;;;;;4.70;1.70;;;;;;;;;;5031406;28;20164;-66
2022/04/03 00:28:39;;;;;;;6.70;1.80;;;;;;;;;;5037547;28;20076;-66
2022/04/03 00:31:06;;;;;;;2.38;1.60;;;;;;;;;;5038684;28;20053;-66
2022/04/03 00:33:32;;;;;;;3.30;1.70;;;;;;;;;;5027444;28;20045;-66
2022/04/03 00:35:58;;;;;;;4.72;1.95;;;;;;;;;;5031921;28;20050;-67
2022/04/03 00:38:25;;;;;;;4.63;1.95;;;;;;;;;;5024838;28;20064;-65
2022/04/03 00:40:51;;;;;;;4.45;1.60;;;;;;;;;;5040292;28;20512;-65
2022/04/03 00:43:17;;;;;;;6.78;1.80;;;;;;;;;;5021645;28;20064;-68
2022/04/03 00:45:45;;;;;;;4.57;1.70;;;;;;;;;;5041521;28;20525;-66
2022/04/03 00:48:12;;;;;;;2.50;1.65;;;;;;;;;;5035404;28;20566;-67
2022/04/03 00:50:41;;;;;;;6.05;1.70;;;;;;;;;;5029701;28;20049;-66
2022/04/03 00:53:07;;;;;;;3.35;1.42;;;;;;;;;;5042116;28;20421;-67
2022/04/03 00:55:34;;;;;;;4.80;1.77;;;;;;;;;;5040165;28;20627;-67
2022/04/03 00:58:01;;;;;;;5.35;1.85;;;;;;;;;;5041090;28;20049;-67
2022/04/03 01:00:27;;;;;;;4.50;1.92;;;;;;;;;;5044629;28;20049;-67
2022/04/03 01:02:54;;;;;;;4.93;1.73;;;;;;;;;;5026511;28;20065;-66
2022/04/03 01:05:21;;;;;;;2.00;1.20;;;;;;;;;;5035605;28;20072;-66
2022/04/03 01:07:47;;;;;;;3.58;1.50;;;;;;;;;;5032554;28;20092;-68
2022/04/03 01:10:13;;;;;;;4.03;1.63;;;;;;;;;;5037571;28;20053;-68
2022/04/03 01:12:45;;;;;;;7.35;1.70;;;;;;;;;;5039278;28;20083;-65
2022/04/03 01:15:17;;;;;;;4.40;1.55;;;;;;;;;;5023341;28;20057;-65
2022/04/03 01:17:44;;;;;;;2.35;1.42;;;;;;;;;;5024920;28;20059;-64
2022/04/03 01:20:10;;;;;;;3.78;1.67;;;;;;;;;;5036209;28;20045;-65
2022/04/03 01:22:37;;;;;;;5.22;1.80;;;;;;;;;;5028049;28;20109;-65
2022/04/03 01:25:04;;;;;;;4.70;1.90;;;;;;;;;;5037779;28;20061;-65
2022/04/03 01:27:30;;;;;;;5.03;1.90;;;;;;;;;;5055507;28;20049;-65
2022/04/03 01:29:57;;;;;;;4.00;1.67;;;;;;;;;;5035441;28;20071;-65
2022/04/03 01:32:24;;;;;;;3.97;1.80;;;;;;;;;;5035225;28;20057;-66
2022/04/03 01:34:50;;;;;;;3.83;1.63;;;;;;;;;;5045875;28;20067;-66
2022/04/03 01:37:16;;;;;;;2.20;1.30;;;;;;;;;;5009214;28;20056;-66
2022/04/03 01:39:43;;;;;;;3.75;1.73;;;;;;;;;;5032148;28;20132;-67
2022/04/03 01:42:09;;;;;;;4.25;1.52;;;;;;;;;;5022895;28;20060;-67
2022/04/03 01:44:35;;;;;;;3.22;1.80;;;;;;;;;;5037957;28;20524;-67
2022/04/03 01:47:02;;;;;;;3.35;1.77;;;;;;;;;;5034040;28;20485;-67
2022/04/03 01:49:28;;;;;;;4.63;1.83;;;;;;;;;;5035973;28;20391;-67
2022/04/03 01:51:55;;;;;;;2.78;1.55;;;;;;;;;;5045355;28;20052;-67
2022/04/03 01:54:21;;;;;;;7.35;1.83;;;;;;;;;;5021654;28;20072;-66
2022/04/03 01:56:47;;;;;;;3.10;1.40;;;;;;;;;;5032669;28;20144;-66
2022/04/03 01:59:14;;;;;;;5.65;1.63;;;;;;;;;;5030653;28;20095;-66
2022/04/03 02:01:40;;;;;;;4.72;1.77;;;;;;;;;;5038182;28;20052;-67
2022/04/03 02:04:07;;;;;;;4.30;1.42;;;;;;;;;;5039483;28;20604;-66
2022/04/03 02:06:34;;;;;;;2.22;1.33;;;;;;;;;;5037726;28;20466;-66
2022/04/03 02:09:01;;;;;;;3.13;1.42;;;;;;;;;;5053731;28;20059;-66
2022/04/03 02:11:28;;;;;;;2.92;1.60;;;;;;;;;;5023206;28;20053;-66
2022/04/03 02:13:54;;;;;;;3.10;1.80;;;;;;;;;;5024157;28;20057;-66
2022/04/03 02:16:22;;;;;;;4.40;2.30;;;;;;;;;;5024502;28;20426;-66
2022/04/03 02:18:48;;;;;;;3.88;2.20;;;;;;;;;;5025796;28;20057;-66
2022/04/03 02:21:15;;;;;;;3.30;2.25;;;;;;;;;;5020637;28;20064;-66
2022/04/03 02:23:41;;;;;;;5.50;2.63;;;;;;;;;;5025173;28;20054;-66
2022/04/03 02:26:08;;;;;;;9.60;2.50;;;;;;;;;;5026827;28;20357;-66
2022/04/03 02:28:35;;;;;;;6.78;2.88;;;;;;;;;;5018627;28;20582;-66
2022/04/03 02:31:01;;;;;;;5.15;2.70;;;;;;;;;;5041591;28;20498;-65
2022/04/03 02:33:27;;;;;;;5.85;2.58;;;;;;;;;;5047447;28;20432;-66
2022/04/03 02:35:54;;;;;;;5.97;2.30;;;;;;;;;;5041673;28;20061;-66
2022/04/03 02:38:20;;;;;;;7.78;2.80;;;;;;;;;;5026199;28;20049;-66
2022/04/03 02:40:47;;;;;;;6.00;2.75;;;;;;;;;;5021271;28;20045;-66
2022/04/03 02:43:13;;;;;;;5.93;2.78;;;;;;;;;;5025951;28;20056;-66
2022/04/03 02:45:40;;;;;;;8.40;2.88;;;;;;;;;;5025427;28;20045;-66
2022/04/03 02:48:06;;;;;;;5.03;2.40;;;;;;;;;;5044257;28;20094;-66
2022/04/03 02:50:33;;;;;;;4.18;2.63;;;;;;;;;;5031425;28;20056;-66
2022/04/03 02:52:59;;;;;;;5.80;3.10;;;;;;;;;;5032676;28;20061;-66
2022/04/03 02:55:26;;;;;;;4.68;2.40;;;;;;;;;;5019380;28;20702;-66
2022/04/03 02:57:52;;;;;;;3.67;2.50;;;;;;;;;;5025378;28;20057;-67
2022/04/03 03:00:19;;;;;;;7.22;3.17;;;;;;;;;;5027101;28;20410;-66
2022/04/03 03:02:47;;;;;;;4.72;2.53;;;;;;;;;;5018495;28;20049;-67
2022/04/03 03:05:14;;;;;;;6.22;2.80;;;;;;;;;;5033938;28;20052;-66
2022/04/03 03:07:41;;;;;;;6.70;2.40;;;;;;;;;;5012696;28;20057;-66
2022/04/03 03:10:08;;;;;;;7.03;2.50;;;;;;;;;;5028527;28;20056;-66
2022/04/03 03:12:35;;;;;;;5.65;2.70;;;;;;;;;;5028465;28;20064;-66
2022/04/03 03:15:04;;;;;;;4.97;2.60;;;;;;;;;;5036975;28;20057;-67
2022/04/03 03:17:31;;;;;;;6.43;3.20;;;;;;;;;;5026073;28;20060;-66
2022/04/03 03:19:58;;;;;;;12.20;3.03;;;;;;;;;;5012939;28;20045;-66
2022/04/03 03:22:24;;;;;;;6.15;2.85;;;;;;;;;;5021963;28;20049;-66
2022/04/03 03:24:51;;;;;;;6.93;2.75;;;;;;;;;;5018616;28;20063;-66
2022/04/03 03:27:17;;;;;;;3.97;2.25;;;;;;;;;;5043530;28;20053;-66
2022/04/03 03:29:44;;;;;;;8.02;2.58;;;;;;;;;;5014155;28;20067;-66
2022/04/03 03:32:10;;;;;;;4.47;2.50;;;;;;;;;;5045059;28;20067;-66
2022/04/03 03:34:37;;;;;;;6.03;2.33;;;;;;;;;;5034832;28;20053;-66
2022/04/03 03:37:03;;;;;;;4.53;2.22;;;;;;;;;;5026870;28;20060;-66
2022/04/03 03:39:30;;;;;;;8.15;2.70;;;;;;;;;;5044399;28;20061;-66
2022/04/03 03:41:56;;;;;;;4.55;1.83;;;;;;;;;;5031070;28;20064;-66
2022/04/03 03:44:22;;;;;;;3.45;2.05;;;;;;;;;;5044019;28;20490;-67
2022/04/03 03:46:49;;;;;;;5.13;2.22;;;;;;;;;;5033619;28;20052;-66
2022/04/03 03:49:15;;;;;;;3.88;2.13;;;;;;;;;;5042935;28;20052;-66
2022/04/03 03:51:42;;;;;;;6.63;2.30;;;;;;;;;;5032773;28;20121;-66
2022/04/03 03:54:08;;;;;;;4.18;2.05;;;;;;;;;;5021906;28;20499;-66
2022/04/03 03:56:35;;;;;;;3.65;2.20;;;;;;;;;;5034479;28;20415;-66
2022/04/03 03:59:01;;;;;;;3.92;2.20;;;;;;;;;;5026434;28;20550;-66
2022/04/03 04:01:27;;;;;;;5.85;2.17;;;;;;;;;;5044371;28;20052;-65
2022/04/03 04:03:54;;;;;;;7.30;2.00;;;;;;;;;;5038074;28;20057;-65
2022/04/03 04:06:20;;;;;;;6.60;2.67;;;;;;;;;;5021126;28;20572;-65
2022/04/03 04:08:46;;;;;;;2.83;1.88;;;;;;;;;;5007285;28;20518;-65
2022/04/03 04:11:13;;;;;;;4.30;2.08;;;;;;;;;;5021714;28;20061;-65
2022/04/03 04:13:40;;;;;;;6.38;2.33;;;;;;;;;;5038416;28;20064;-65
2022/04/03 04:16:06;;;;;;;5.00;2.20;;;;;;;;;;5028632;28;20100;-65
2022/04/03 04:18:32;;;;;;;4.75;2.00;;;;;;;;;;5044688;28;20048;-65
2022/04/03 04:21:02;;;;;;;6.68;1.88;;;;;;;;;;5028720;28;20076;-65
2022/04/03 04:23:28;;;;;;;5.13;2.10;;;;;;;;;;5016444;28;20041;-65
2022/04/03 04:25:54;;;;;;;5.35;2.13;;;;;;;;;;5027987;28;20063;-65
2022/04/03 04:28:20;;;;;;;5.47;2.33;;;;;;;;;;5021753;28;20064;-66
2022/04/03 04:30:47;;;;;;;4.82;2.83;;;;;;;;;;5030769;28;20498;-65
2022/04/03 04:33:13;;;;;;;5.13;2.67;;;;;;;;;;5040238;28;20057;-65
2022/04/03 04:35:39;;;;;;;5.18;2.55;;;;;;;;;;5023749;28;20053;-65
2022/04/03 04:38:06;;;;;;;5.78;2.65;;;;;;;;;;5023883;28;20064;-67
2022/04/03 04:40:32;;;;;;;6.93;2.65;;;;;;;;;;5020466;28;20079;-66
2022/04/03 04:42:58;;;;;;;4.65;2.55;;;;;;;;;;5028270;28;20061;-66
2022/04/03 04:45:28;;;;;;;4.18;2.85;;;;;;;;;;5041013;28;20052;-66
2022/04/03 04:47:59;;;;;;;6.80;3.40;;;;;;;;;;5037998;28;20045;-66
2022/04/03 04:50:27;;;;;;;4.20;2.50;;;;;;;;;;5033141;28;20049;-66
2022/04/03 04:52:53;;;;;;;6.90;2.83;;;;;;;;;;5043639;28;20049;-66
2022/04/03 04:55:20;;;;;;;7.40;3.22;;;;;;;;;;5029009;28;20403;-66
2022/04/03 04:57:51;;;;;;;6.22;3.47;;;;;;;;;;5035062;28;20490;-66
2022/04/03 05:00:18;;;;;;;7.78;3.20;;;;;;;;;;5031291;28;20050;-66
2022/04/03 05:02:47;;;;;;;7.22;3.00;;;;;;;;;;5022143;28;20050;-66
2022/04/03 05:05:14;;;;;;;4.93;2.65;;;;;;;;;;5041497;28;20425;-66
2022/04/03 05:07:41;;;;;;;6.22;2.72;;;;;;;;;;5031867;28;20087;-66
2022/04/03 05:10:08;;;;;;;4.25;2.40;;;;;;;;;;5030506;28;20050;-66
2022/04/03 05:12:36;;;;;;;10.90;3.30;;;;;;;;;;5030205;28;20141;-66
2022/04/03 05:15:02;;;;;;;6.03;2.75;;;;;;;;;;5013880;28;20045;-66
2022/04/03 05:17:28;;;;;;;5.45;2.78;;;;;;;;;;5036719;28;20049;-66
2022/04/03 05:19:55;;;;;;;9.05;2.78;;;;;;;;;;5018770;28;20041;-67
2022/04/03 05:22:23;;;;;;;6.35;2.50;;;;;;;;;;5029431;28;20065;-66
2022/04/03 05:24:50;;;;;;;5.13;2.20;;;;;;;;;;5021501;28;20051;-66
2022/04/03 05:27:17;;;;;;;4.10;2.50;;;;;;;;;;5034607;28;20058;-66
2022/04/03 05:29:43;;;;;;;5.90;2.10;;;;;;;;;;5035042;28;20045;-66
2022/04/03 05:32:09;;;;;;;6.15;2.35;;;;;;;;;;5025976;28;20045;-66
2022/04/03 05:34:35;;;;;;;5.00;2.05;;;;;;;;;;5027960;28;20057;-66
2022/04/03 05:37:02;;;;;;;4.22;2.30;;;;;;;;;;5022662;28;20040;-66
2022/04/03 05:39:28;;;;;;;4.68;2.33;;;;;;;;;;5033417;28;20049;-66
2022/04/03 05:41:55;;;;;;;3.65;2.10;;;;;;;;;;5034884;28;20056;-66
2022/04/03 05:44:22;;;;;;;4.30;2.40;;;;;;;;;;5038429;28;20068;-66
2022/04/03 05:46:49;;;;;;;4.68;2.42;;;;;;;;;;5037469;28;20053;-66
2022/04/03 05:49:16;;;;;;;6.05;2.75;;;;;;;;;;5030517;28;20053;-66
2022/04/03 05:51:43;;;;;;;4.05;2.38;;;;;;;;;;5036306;28;20049;-66
2022/04/03 05:54:10;;;;;;;8.07;2.92;;;;;;;;;;5027925;28;20045;-66
2022/04/03 05:56:37;;;;;;;4.63;2.65;;;;;;;;;;5029379;28;20483;-66
2022/04/03 05:59:03;;;;;;;6.78;2.25;;;;;;;;;;5018055;28;20057;-66
2022/04/03 06:01:29;;;;;;;5.60;3.00;;;;;;;;;;5030468;28;20057;-67
2022/04/03 06:03:57;;;;;;;9.43;3.28;;;;;;;;;;5031678;28;20052;-66
2022/04/03 06:06:23;;;;;;;5.32;3.08;;;;;;;;;;5021099;28;20450;-66
2022/04/03 06:08:49;;;;;;;5.25;3.30;;;;;;;;;;5030755;28;20041;-66
2022/04/03 06:11:16;;;;;;;5.70;3.15;;;;;;;;;;5022999;28;20053;-66
2022/04/03 06:13:42;;;;;;;5.85;3.25;;;;;;;;;;5027597;28;20052;-66
2022/04/03 06:16:09;;;;;;;6.93;2.78;;;;;;;;;;5027904;28;20055;-66
2022/04/03 06:18:36;;;;;;;4.55;2.63;;;;;;;;;;5041313;28;20049;-66
2022/04/03 06:21:02;;;;;;;6.22;2.45;;;;;;;;;;5029770;28;20149;-66
2022/04/03 06:23:28;;;;;;;6.00;2.47;;;;;;;;;;5036860;28;20056;-66
2022/04/03 06:25:56;;;;;;;8.82;2.35;;;;;;;;;;5030204;28;20049;-66
2022/04/03 06:28:22;;;;;;;8.38;2.90;;;;;;;;;;5033253;28;20513;-66
2022/04/03 06:30:49;;;;;;;5.20;2.67;;;;;;;;;;5033764;28;20461;-66
2022/04/03 06:33:16;;;;;;;7.60;2.67;;;;;;;;;;5045059;28;20541;-67
2022/04/03 06:35:43;;;;;;;5.45;2.38;;;;;;;;;;5026658;28;20053;-66
2022/04/03 06:38:10;;;;;;;7.25;3.05;;;;;;;;;;5034472;28;20536;-67
2022/04/03 06:40:36;;;;;;;5.10;2.97;;;;;;;;;;5029490;28;20050;-66
2022/04/03 06:43:03;;;;;;;4.55;2.67;;;;;;;;;;5030156;28;20056;-66
2022/04/03 06:45:30;;;;;;;6.50;3.00;;;;;;;;;;5049191;28;20045;-66
2022/04/03 06:48:00;;;;;;;6.60;3.35;;;;;;;;;;5041168;28;20063;-66
2022/04/03 06:50:26;;;;;;;8.30;3.08;;;;;;;;;;5040842;28;20049;-66
2022/04/03 06:52:52;;;;;;;5.47;3.00;;;;;;;;;;5035814;28;20061;-66
2022/04/03 06:55:20;;;;;;;10.48;3.67;;;;;;;;;;5023744;28;20058;-66
2022/04/03 06:57:46;;;;;;;7.90;3.53;;;;;;;;;;5048145;28;20060;-67
2022/04/03 07:00:13;;;;;;;5.88;3.10;;;;;;;;;;5030504;28;20426;-66
2022/04/03 07:02:39;;;;;;;4.88;3.20;;;;;;;;;;5038974;28;20053;-66
2022/04/03 07:05:06;;;;;;;11.45;3.30;;;;;;;;;;5045887;28;20407;-66
2022/04/03 07:07:32;;;;;;;8.38;3.30;;;;;;;;;;5037826;28;20053;-66
2022/04/03 07:09:58;;;;;;;8.00;3.45;;;;;;;;;;5027320;28;20100;-66
2022/04/03 07:12:25;;;;;;;6.82;3.60;;;;;;;;;;5027487;28;20056;-66
2022/04/03 07:14:51;;;;;;;8.20;3.10;;;;;;;;;;5024409;28;20064;-66
2022/04/03 07:17:17;;;;;;;8.57;3.03;;;;;;;;;;5032615;28;20138;-66
2022/04/03 07:19:44;;;;;;;7.28;2.85;;;;;;;;;;5033490;28;20395;-66
2022/04/03 07:22:10;;;;;;;8.27;3.28;;;;;;;;;;5032653;28;20403;-66
2022/04/03 07:24:37;;;;;;;5.38;3.13;;;;;;;;;;5019742;28;20049;-66
2022/04/03 07:27:03;;;;;;;5.97;3.15;;;;;;;;;;5028645;28;20430;-66
2022/04/03 07:29:30;;;;;;;6.20;3.35;;;;;;;;;;5036531;28;20040;-66
2022/04/03 07:31:57;;;;;;;5.38;3.45;;;;;;;;;;5037125;28;20057;-66
2022/04/03 07:34:24;;;;;;;12.25;3.65;;;;;;;;;;5037650;28;20064;-66
2022/04/03 07:36:50;;;;;;;5.88;3.47;;;;;;;;;;5027998;28;20045;-66
2022/04/03 07:39:16;;;;;;;8.20;3.67;;;;;;;;;;5027765;28;20068;-66
2022/04/03 07:41:43;;;;;;;7.85;3.40;;;;;;;;;;5032986;28;20049;-66
2022/04/03 07:44:09;;;;;;;5.15;3.38;;;;;;;;;;5043960;28;20045;-66
2022/04/03 07:46:41;;;;;;;8.82;3.38;;;;;;;;;;5059927;28;20044;-66
2022/04/03 07:49:07;;;;;;;6.10;3.50;;;;;;;;;;5038733;28;20052;-66
2022/04/03 07:51:34;;;;;;;4.90;3.40;;;;;;;;;;5042986;28;20486;-66
2022/04/03 07:54:00;;;;;;;5.70;3.40;;;;;;;;;;5031442;28;20050;-67
2022/04/03 07:56:26;;;;;;;8.02;3.72;;;;;;;;;;5040943;28;20049;-66
2022/04/03 07:58:53;;;;;;;6.55;3.28;;;;;;;;;;5031217;28;20524;-67
2022/04/03 08:01:19;;;;;;;5.97;3.35;;;;;;;;;;5030995;28;20052;-66
2022/04/03 08:03:46;;;;;;;5.03;3.35;;;;;;;;;;5042116;28;20049;-67
2022/04/03 08:06:12;;;;;;;7.53;3.20;;;;;;;;;;5020049;28;20049;-66
2022/04/03 08:08:39;;;;;;;8.57;3.50;;;;;;;;;;5043374;28;20056;-66
2022/04/03 08:11:05;;;;;;;4.85;3.30;;;;;;;;;;5027331;28;20038;-66
2022/04/03 08:13:31;;;;;;;6.47;3.70;;;;;;;;;;5031358;28;20053;-66
2022/04/03 08:15:57;;;;;;;8.23;3.88;;;;;;;;;;5028612;28;20052;-66
2022/04/03 08:18:25;;;;;;;9.02;3.55;;;;;;;;;;5027893;28;20307;-66
2022/04/03 08:20:51;;;;;;;6.75;3.85;;;;;;;;;;5030049;28;20068;-67
2022/04/03 08:23:17;;;;;;;8.27;3.70;;;;;;;;;;5038334;28;20598;-66
2022/04/03 08:25:45;;;;;;;6.43;3.00;;;;;;;;;;5040713;28;20130;-66
2022/04/03 08:28:11;;;;;;;6.75;3.35;;;;;;;;;;5038276;28;20045;-67
2022/04/03 08:30:38;;;;;;;4.72;2.95;;;;;;;;;;5041159;28;20036;-66
2022/04/03 08:33:05;;;;;;;7.47;3.83;;;;;;;;;;5040549;28;20041;-67
2022/04/03 08:35:31;;;;;;;8.77;3.63;;;;;;;;;;5037697;28;20037;-67
2022/04/03 08:37:59;;;;;;;4.90;3.13;;;;;;;;;;5034722;28;20462;-67
2022/04/03 08:40:26;;;;;;;6.68;2.75;;;;;;;;;;5023200;28;20502;-67
2022/04/03 08:42:55;;;;;;;5.13;2.63;;;;;;;;;;5034234;28;20196;-67
2022/04/03 08:45:22;;;;;;;5.65;2.70;;;;;;;;;;5036522;28;20052;-67
2022/04/03 08:47:50;;;;;;;4.47;2.70;;;;;;;;;;5025369;28;20052;-67
2022/04/03 08:50:17;;;;;;;5.93;2.83;;;;;;;;;;5043860;28;20052;-66
2022/04/03 08:52:48;;;;;;;4.63;2.90;;;;;;;;;;5032159;28;20100;-67
2022/04/03 08:55:15;;;;;;;5.75;2.72;;;;;;;;;;5029860;28;20060;-66
2022/04/03 08:57:48;;;;;;;6.25;2.88;;;;;;;;;;5023571;28;20041;-67
2022/04/03 09:00:15;;;;;;;4.88;2.70;;;;;;;;;;5029884;28;20045;-67
2022/04/03 09:02:45;;;;;;;5.93;2.30;;;;;;;;;;5020810;28;20590;-67
2022/04/03 09:05:11;;;;;;;5.78;2.60;;;;;;;;;;5032949;28;20073;-67
2022/04/03 09:07:38;;;;;;;5.53;2.50;;;;;;;;;;5039911;28;20422;-67
2022/04/03 09:10:11;;;;;;;2.58;1.20;;;;;;;;;;5042114;28;20056;-67
2022/04/03 09:12:47;;;;;;;2.08;1.20;;;;;;;;;;5030425;28;20425;-66
2022/04/03 09:15:15;;;;;;;3.75;1.58;;;;;;;;;;5041177;28;20066;-67
2022/04/03 09:17:44;;;;;;;3.80;1.67;;;;;;;;;;5042790;28;20505;-67
2022/04/03 09:20:12;;;;;;;4.53;1.80;;;;;;;;;;5025984;28;20414;-67
2022/04/03 09:22:40;;;;;;;2.58;2.13;;;;;;;;;;5031166;28;20061;-67
2022/04/03 09:25:07;;;;;;;2.92;1.80;;;;;;;;;;5024355;28;20054;-67
2022/04/03 09:27:34;;;;;;;5.45;2.00;;;;;;;;;;5025067;28;20056;-66
2022/04/03 09:30:02;;;;;;;3.97;2.20;;;;;;;;;;5025328;28;20062;-66
2022/04/03 09:32:28;;;;;;;3.22;2.17;;;;;;;;;;5053192;28;20064;-67
2022/04/03 09:34:56;;;;;;;4.57;2.00;;;;;;;;;;5043606;28;20068;-67
2022/04/03 09:37:22;;;;;;;3.42;1.70;;;;;;;;;;5023021;28;20510;-67
2022/04/03 09:39:49;;;;;;;2.63;1.80;;;;;;;;;;5035524;28;20075;-67
2022/04/03 09:42:15;;;;;;;5.22;2.17;;;;;;;;;;5017787;28;20418;-67
2022/04/03 09:44:43;;;;;;;5.18;1.80;;;;;;;;;;5032459;28;20413;-67
2022/04/03 09:47:14;;;;;;;2.92;1.90;;;;;;;;;;5043943;28;20045;-67
2022/04/03 09:49:41;;;;;;;5.03;2.30;;;;;;;;;;5028183;28;20061;-67
2022/04/03 09:52:09;;;;;;;4.97;2.20;;;;;;;;;;5049460;28;20056;-67
2022/04/03 09:54:39;;;;;;;5.22;1.75;;;;;;;;;;5027555;28;20424;-67
2022/04/03 09:57:21;;;;;;;4.25;2.03;;;;;;;;;;5024048;28;20045;-67
2022/04/03 09:59:49;;;;;;;3.28;1.70;;;;;;;;;;5022128;28;20050;-67
2022/04/03 10:02:15;;;;;;;3.67;1.50;;;;;;;;;;5028604;28;20045;-67
2022/04/03 10:04:43;;;;;;;4.25;1.20;;;;;;;;;;5022221;28;20129;-67
2022/04/03 10:07:12;;;;;;;4.28;0.95;;;;;;;;;;5031258;28;20145;-67
2022/04/03 10:09:48;;;;;;;3.08;0.70;;;;;;;;;;5022763;28;20050;-67
2022/04/03 10:12:16;;;;;;;2.15;0.90;;;;;;;;;;5025735;28;20056;-67
2022/04/03 10:14:47;;;;;;;1.80;0.60;;;;;;;;;;5033011;28;20057;-67
2022/04/03 10:17:13;;;;;;;1.30;0.60;;;;;;;;;;5021682;28;20049;-67
2022/04/03 10:19:40;;;;;;;1.73;0.93;;;;;;;;;;5029146;28;20403;-67
2022/04/03 10:22:09;;;;;;;1.77;0.90;;;;;;;;;;5017128;28;20060;-67
2022/04/03 10:24:36;;;;;;;1.23;0.70;;;;;;;;;;5025331;28;20045;-67
2022/04/03 10:27:07;;;;;;;1.70;0.70;;;;;;;;;;5040027;28;20049;-67
2022/04/03 10:29:36;;;;;;;3.22;0.90;;;;;;;;;;5029573;28;20049;-67
2022/04/03 10:32:03;;;;;;;1.90;1.00;;;;;;;;;;5030339;28;20057;-67
2022/04/03 10:34:30;;;;;;;1.55;0.90;;;;;;;;;;5034870;28;20049;-67
2022/04/03 10:36:56;;;;;;;2.50;1.17;;;;;;;;;;5035168;28;20049;-67
2022/04/03 10:39:25;;;;;;;2.72;1.13;;;;;;;;;;5026269;28;20051;-67
2022/04/03 10:42:12;;;;;;;2.20;1.02;;;;;;;;;;5043404;28;20676;-67
2022/04/03 10:44:38;;;;;;;2.10;0.90;;;;;;;;;;5025170;28;20064;-68
2022/04/03 10:47:04;;;;;;;4.47;0.90;;;;;;;;;;5036425;28;20057;-67
2022/04/03 10:49:46;;;;;;;2.92;1.02;;;;;;;;;;5032604;28;20061;-67
2022/04/03 10:52:23;;;;;;;2.28;0.77;;;;;;;;;;5024813;28;20049;-67
2022/04/03 10:54:50;;;;;;;3.78;1.27;;;;;;;;;;5033386;28;20426;-67
2022/04/03 10:57:35;;;;;;;2.92;1.00;;;;;;;;;;5037451;28;20048;-67
2022/04/03 11:00:14;;;;;;;2.45;0.80;;;;;;;;;;5027613;28;20161;-67
2022/04/03 11:02:41;;;;;;;1.45;1.00;;;;;;;;;;5030855;28;20050;-68
2022/04/03 11:05:32;;;;;;;3.25;1.00;;;;;;;;;;5038506;28;20053;-67
2022/04/03 11:08:02;;;;;;;3.22;1.08;;;;;;;;;;5026947;28;20063;-67
2022/04/03 11:10:45;;;;;;;3.83;1.02;;;;;;;;;;5027249;28;20057;-67
2022/04/03 11:13:20;;;;;;;1.60;0.82;;;;;;;;;;5038354;28;20052;-67
2022/04/03 11:15:51;;;;;;;3.20;1.27;;;;;;;;;;5035245;28;20049;-67
2022/04/03 11:18:36;;;;;;;3.72;1.27;;;;;;;;;;5036064;28;20562;-67
2022/04/03 11:21:06;;;;;;;4.03;1.40;;;;;;;;;;5027104;28;20049;-67
2022/04/03 11:23:37;;;;;;;4.57;1.50;;;;;;;;;;5044933;28;20802;-67
2022/04/03 11:26:03;;;;;;;1.80;1.10;;;;;;;;;;5032001;28;20094;-67
2022/04/03 11:28:31;;;;;;;2.15;1.15;;;;;;;;;;5034664;28;20057;-67
2022/04/03 11:30:58;;;;;;;2.92;1.25;;;;;;;;;;5035083;28;20058;-67
2022/04/03 11:33:25;;;;;;;5.15;1.60;;;;;;;;;;5026508;28;20044;-67
2022/04/03 11:35:53;;;;;;;4.70;1.65;;;;;;;;;;5027005;28;20403;-67
2022/04/03 11:38:20;;;;;;;4.43;1.27;;;;;;;;;;5029540;28;20403;-67
2022/04/03 11:40:47;;;;;;;4.68;1.38;;;;;;;;;;5042307;28;20495;-67
2022/04/03 11:43:15;;;;;;;2.55;1.45;;;;;;;;;;5028110;28;20497;-68
2022/04/03 11:45:49;;;;;;;2.80;1.30;;;;;;;;;;5041721;28;20052;-67
2022/04/03 11:48:21;;;;;;;3.05;1.13;;;;;;;;;;5030046;28;20045;-67
2022/04/03 11:50:49;;;;;;;4.28;1.75;;;;;;;;;;5026355;28;20408;-66
2022/04/03 11:53:18;;;;;;;4.68;1.25;;;;;;;;;;5043538;28;20386;-67
2022/04/03 11:55:45;;;;;;;2.90;1.40;;;;;;;;;;5030152;28;20061;-67
2022/04/03 11:58:12;;;;;;;2.20;1.30;;;;;;;;;;5034725;28;20041;-67
2022/04/03 12:00:47;;;;;;;2.70;1.02;;;;;;;;;;5028508;28;20049;-67
2022/04/03 12:03:24;;;;;;;3.35;1.30;;;;;;;;;;5035979;28;20049;-67
2022/04/03 12:05:51;;;;;;;3.33;1.20;;;;;;;;;;5037340;28;20060;-67
2022/04/03 12:08:18;;;;;;;2.65;1.13;;;;;;;;;;5033041;28;20517;-67
2022/04/03 12:10:44;;;;;;;3.40;1.48;;;;;;;;;;5040823;28;20053;-67
2022/04/03 12:13:16;;;;;;;2.75;1.23;;;;;;;;;;5015465;28;20060;-67
2022/04/03 12:15:43;;;;;;;4.32;1.77;;;;;;;;;;5020196;28;20440;-67
2022/04/03 12:18:23;;;;;;;3.63;1.60;;;;;;;;;;5019393;28;20045;-67
2022/04/03 12:20:50;;;;;;;2.25;1.20;;;;;;;;;;5034145;28;20266;-67
2022/04/03 12:23:16;;;;;;;2.45;1.52;;;;;;;;;;5030926;28;20045;-66
2022/04/03 12:25:43;;;;;;;3.38;1.50;;;;;;;;;;5014964;28;20088;-67
2022/04/03 12:28:10;;;;;;;4.10;1.40;;;;;;;;;;5021649;28;20056;-67
2022/04/03 12:30:36;;;;;;;3.17;1.60;;;;;;;;;;5013709;28;20060;-67
2022/04/03 12:33:04;;;;;;;3.78;1.60;;;;;;;;;;5040929;28;20079;-67
2022/04/03 12:35:30;;;;;;;4.95;1.70;;;;;;;;;;5025721;28;20439;-67
2022/04/03 12:38:17;;;;;;;3.55;1.48;;;;;;;;;;5025292;28;20072;-67
2022/04/03 12:40:53;;;;;;;3.95;1.85;;;;;;;;;;5016866;28;20049;-67
2022/04/03 12:43:20;;;;;;;3.58;1.50;;;;;;;;;;5018411;28;20155;-67
2022/04/03 12:45:56;;;;;;;3.97;1.90;;;;;;;;;;5039254;28;20053;-67
2022/04/03 12:48:23;;;;;;;3.60;1.77;;;;;;;;;;5017342;28;20652;-67
2022/04/03 12:50:51;;;;;;;2.85;1.67;;;;;;;;;;5024981;28;20045;-68
2022/04/03 12:53:17;;;;;;;3.53;1.80;;;;;;;;;;5021895;28;20049;-68
2022/04/03 12:55:49;;;;;;;2.45;1.50;;;;;;;;;;5021894;28;20410;-67
2022/04/03 12:58:26;;;;;;;4.38;1.80;;;;;;;;;;5015221;28;20045;-68
2022/04/03 13:01:12;;;;;;;2.33;1.60;;;;;;;;;;5030643;28;20084;-68
2022/04/03 13:03:52;;;;;;;4.78;1.90;;;;;;;;;;5032519;28;20063;-67
2022/04/03 13:06:21;;;;;;;7.95;2.75;;;;;;;;;;5027420;28;20052;-67
2022/04/03 13:08:52;;;;;;;3.72;1.73;;;;;;;;;;5029438;28;20052;-68
2022/04/03 13:11:39;;;;;;;8.15;2.00;;;;;;;;;;5013444;28;20196;-67
2022/04/03 13:14:26;;;;;;;2.40;1.63;;;;;;;;;;5026456;28;20057;-67
2022/04/03 13:16:53;;;;;;;3.58;2.05;;;;;;;;;;5016875;28;20053;-67
2022/04/03 13:19:21;;;;;;;1.90;1.30;;;;;;;;;;5024609;28;20255;-67
2022/04/03 13:21:47;;;;;;;2.85;1.13;;;;;;;;;;5018144;28;20593;-66
2022/04/03 13:24:14;;;;;;;2.53;1.20;;;;;;;;;;5020791;28;20053;-67
2022/04/03 13:26:51;;;;;;;1.80;1.00;;;;;;;;;;5008452;28;20056;-67
2022/04/03 13:29:18;;;;;;;1.90;0.93;;;;;;;;;;5020996;28;20042;-67
2022/04/03 13:31:45;;;;;;;1.80;0.90;;;;;;;;;;5031849;28;20056;-67
2022/04/03 13:34:12;;;;;;;1.67;0.68;;;;;;;;;;5018794;28;20053;-67
2022/04/03 13:36:38;;;;;;;0.90;0.70;;;;;;;;;;5025375;28;20450;-67
2022/04/03 13:39:06;;;;;;;3.80;0.90;;;;;;;;;;5013358;28;20049;-66
2022/04/03 13:41:33;;;;;;;3.70;1.15;;;;;;;;;;5023358;28;20056;-66
2022/04/03 13:43:59;;;;;;;2.45;0.90;;;;;;;;;;5026519;28;20465;-66
2022/04/03 13:46:26;;;;;;;1.67;0.85;;;;;;;;;;5021753;28;20053;-68
2022/04/03 13:48:52;;;;;;;1.75;1.00;;;;;;;;;;5027735;28;20124;-66
2022/04/03 13:51:18;;;;;;;3.78;1.23;;;;;;;;;;5020706;28;20056;-66
2022/04/03 13:53:46;;;;;;;1.67;0.98;;;;;;;;;;5025474;28;20041;-66
2022/04/03 13:56:13;;;;;;;1.95;1.17;;;;;;;;;;5019609;28;20049;-67
2022/04/03 13:58:41;;;;;;;3.25;0.90;;;;;;;;;;5024063;28;20476;-68
2022/04/03 14:01:08;;;;;;;2.35;1.17;;;;;;;;;;5024566;28;20057;-66
2022/04/03 14:03:35;;;;;;;2.00;1.02;;;;;;;;;;5026300;28;20772;-68
2022/04/03 14:06:02;;;;;;;2.72;1.05;;;;;;;;;;5027893;28;20064;-68
2022/04/03 14:08:29;;;;;;;1.83;1.00;;;;;;;;;;5008794;28;20454;-67
2022/04/03 14:10:56;;;;;;;3.10;2.03;;;;;;;;;;5022034;28;20119;-67
2022/04/03 14:13:27;;;;;;;2.80;1.10;;;;;;;;;;5022113;28;20050;-67
2022/04/03 14:15:54;;;;;;;3.53;1.20;;;;;;;;;;5025148;28;20480;-67
2022/04/03 14:18:20;;;;;;;2.33;1.50;;;;;;;;;;5039581;28;20107;-67
2022/04/03 14:20:47;;;;;;;5.25;2.00;;;;;;;;;;5024917;28;20050;-67
2022/04/03 14:23:14;;;;;;;4.53;1.10;;;;;;;;;;5020312;28;20059;-67
2022/04/03 14:25:41;;;;;;;1.52;0.88;;;;;;;;;;5024610;28;20088;-67
2022/04/03 14:28:07;;;;;;;4.00;1.33;;;;;;;;;;5042732;28;20487;-67
2022/04/03 14:30:34;;;;;;;2.55;0.98;;;;;;;;;;5026622;28;20054;-67
2022/04/03 14:33:09;;;;;;;3.08;1.00;;;;;;;;;;5035969;28;20053;-67
2022/04/03 14:35:36;;;;;;;1.88;1.20;;;;;;;;;;5022824;28;20366;-67
2022/04/03 14:38:03;;;;;;;3.72;1.45;;;;;;;;;;5029982;28;20063;-67
2022/04/03 14:40:29;;;;;;;2.42;1.10;;;;;;;;;;5033176;28;20133;-67
2022/04/03 14:42:56;;;;;;;2.45;1.15;;;;;;;;;;5015885;28;20415;-67
2022/04/03 14:45:22;;;;;;;1.70;1.00;;;;;;;;;;5041895;28;20489;-67
2022/04/03 14:47:49;;;;;;;2.83;1.08;;;;;;;;;;5022442;28;20463;-67